Time;durP1;ratioP1;P1;durP2;ratioP2;P2;SDS_P1;SDS_P2;PMS_P1;PMS_P2;Temp;Humidity;BMP_temperature;BMP_pressure;BME280_temperature;BME280_humidity;BME280_pressure;Samples;Min_cycle;Max_cycle;Signal;HPM_P1;HPM_P2
2023/01/06 06:02:16;;;;;;;4.88;2.30;;;9.20;99.90;;;;;;5445331;23;20086;-71
2023/01/06 06:04:42;;;;;;;4.88;2.33;;;9.20;99.90;;;;;;4926425;29;20081;-72
2023/01/06 06:07:08;;;;;;;4.18;2.10;;;9.10;99.90;;;;;;4925940;29;20059;-72
2023/01/06 06:09:34;;;;;;;6.07;2.00;;;9.10;99.90;;;;;;4923806;29;20023;-72
2023/01/06 06:11:59;;;;;;;3.35;2.17;;;9.20;99.90;;;;;;4912641;29;20084;-73
2023/01/06 06:14:25;;;;;;;5.75;2.33;;;9.10;99.90;;;;;;4927741;29;20039;-72
2023/01/06 06:16:52;;;;;;;4.90;2.30;;;9.10;99.90;;;;;;4926527;29;20063;-72
2023/01/06 06:19:18;;;;;;;4.35;2.55;;;9.10;99.90;;;;;;4926020;29;20024;-74
2023/01/06 06:21:43;;;;;;;5.32;2.80;;;9.10;99.90;;;;;;4926418;29;20139;-72
2023/01/06 06:24:09;;;;;;;5.63;2.83;;;9.10;99.90;;;;;;4925889;29;20031;-72
2023/01/06 06:26:35;;;;;;;6.35;3.00;;;9.20;99.90;;;;;;4926305;29;20255;-72
2023/01/06 06:29:01;;;;;;;5.10;2.50;;;9.20;99.90;;;;;;4925997;29;20035;-72
2023/01/06 06:31:28;;;;;;;5.55;2.65;;;9.20;99.90;;;;;;4925504;29;20079;-72
2023/01/06 06:33:56;;;;;;;4.18;2.45;;;9.20;99.90;;;;;;4926397;29;20039;-72
2023/01/06 06:36:23;;;;;;;4.47;2.70;;;9.20;99.90;;;;;;4925632;29;20072;-72
2023/01/06 06:38:50;;;;;;;4.63;1.63;;;9.20;99.90;;;;;;4925836;29;20032;-73
2023/01/06 06:41:17;;;;;;;4.10;2.15;;;9.30;99.90;;;;;;4925990;29;20302;-73
2023/01/06 06:43:43;;;;;;;4.38;2.25;;;9.40;99.90;;;;;;4926234;29;20046;-73
2023/01/06 06:46:09;;;;;;;3.65;2.17;;;9.40;99.90;;;;;;4925762;29;20051;-72
2023/01/06 06:48:35;;;;;;;3.75;2.25;;;9.40;99.90;;;;;;4924950;29;20036;-73
2023/01/06 06:51:07;;;;;;;5.20;2.38;;;9.40;99.90;;;;;;4926050;29;20055;-74
2023/01/06 06:53:34;;;;;;;5.35;2.28;;;9.30;99.90;;;;;;4925708;29;20058;-74
2023/01/06 06:56:00;;;;;;;4.53;2.80;;;9.30;99.90;;;;;;4925768;29;20024;-72
2023/01/06 06:58:26;;;;;;;4.20;2.63;;;9.30;99.90;;;;;;4925566;29;20035;-73
2023/01/06 07:00:52;;;;;;;2.78;1.50;;;9.40;99.90;;;;;;4925559;29;20036;-71
2023/01/06 07:03:19;;;;;;;4.38;1.48;;;9.40;99.90;;;;;;4925133;29;20084;-73
2023/01/06 07:05:46;;;;;;;1.75;0.70;;;9.60;99.90;;;;;;4925912;29;20032;-72
2023/01/06 07:08:12;;;;;;;2.08;0.70;;;9.80;99.90;;;;;;4925237;29;20071;-73
2023/01/06 07:10:38;;;;;;;1.45;0.70;;;10.00;99.90;;;;;;4912480;29;20315;-72
2023/01/06 07:13:04;;;;;;;1.38;0.70;;;10.10;99.90;;;;;;4906881;29;20037;-69
2023/01/06 07:15:30;;;;;;;1.33;0.73;;;10.30;99.90;;;;;;4906242;29;20105;-71
2023/01/06 07:18:00;;;;;;;1.77;0.57;;;10.30;99.90;;;;;;4906557;29;20029;-72
2023/01/06 07:20:25;;;;;;;1.63;0.63;;;10.40;99.90;;;;;;4906114;29;20024;-71
2023/01/06 07:22:51;;;;;;;2.38;0.60;;;10.50;99.90;;;;;;4906585;29;20337;-77
2023/01/06 07:25:17;;;;;;;1.10;0.40;;;10.50;99.90;;;;;;4906199;29;20249;-73
2023/01/06 07:27:42;;;;;;;1.55;0.57;;;10.60;99.90;;;;;;4906742;29;20055;-70
2023/01/06 07:30:09;;;;;;;4.10;0.70;;;10.60;99.90;;;;;;4905805;29;20032;-71
2023/01/06 07:32:35;;;;;;;1.48;0.57;;;10.60;99.90;;;;;;4906593;29;20314;-74
2023/01/06 07:35:00;;;;;;;2.45;0.75;;;10.50;99.90;;;;;;4906456;29;20035;-71
2023/01/06 07:37:26;;;;;;;1.50;0.70;;;10.50;99.90;;;;;;4906237;29;20024;-73
2023/01/06 07:39:52;;;;;;;2.83;0.85;;;10.50;99.90;;;;;;4905467;29;20088;-72
2023/01/06 07:42:17;;;;;;;2.03;0.70;;;10.60;99.90;;;;;;4905985;29;20029;-73
2023/01/06 07:44:43;;;;;;;3.78;0.80;;;10.50;99.90;;;;;;4906558;29;20040;-73
2023/01/06 07:47:09;;;;;;;2.80;1.00;;;10.50;99.90;;;;;;4905401;29;20080;-71
2023/01/06 07:49:35;;;;;;;2.78;1.05;;;10.40;99.90;;;;;;4907702;29;20310;-73
2023/01/06 07:52:01;;;;;;;2.90;0.95;;;10.50;99.90;;;;;;4911058;29;20039;-74
2023/01/06 07:54:27;;;;;;;2.00;1.02;;;10.40;99.90;;;;;;4910089;29;20329;-71
2023/01/06 07:56:52;;;;;;;1.70;1.10;;;10.40;99.90;;;;;;4910762;29;20064;-73
2023/01/06 07:59:18;;;;;;;3.78;0.93;;;10.40;99.90;;;;;;4909866;29;20039;-72
2023/01/06 08:01:44;;;;;;;2.58;0.90;;;10.40;99.90;;;;;;4909926;29;20316;-72
2023/01/06 08:04:09;;;;;;;3.85;0.90;;;10.30;99.90;;;;;;4908505;29;20226;-72
2023/01/06 08:06:39;;;;;;;2.08;1.00;;;10.30;99.90;;;;;;4922637;29;20099;-72
2023/01/06 08:09:04;;;;;;;3.00;0.95;;;10.30;99.90;;;;;;4929571;29;20031;-71
2023/01/06 08:11:30;;;;;;;2.53;1.20;;;10.30;99.90;;;;;;4909032;29;20028;-72
2023/01/06 08:13:56;;;;;;;2.83;1.30;;;10.30;99.90;;;;;;4909904;29;20184;-72
2023/01/06 08:16:21;;;;;;;2.05;1.10;;;10.30;99.90;;;;;;4909604;29;20036;-72
2023/01/06 08:18:47;;;;;;;4.05;1.30;;;10.20;99.90;;;;;;4909861;29;20029;-70
2023/01/06 08:21:13;;;;;;;2.78;1.05;;;10.30;99.90;;;;;;4907799;29;20044;-78
2023/01/06 08:23:39;;;;;;;3.47;1.30;;;10.20;99.90;;;;;;4909535;29;20310;-75
2023/01/06 08:26:12;;;;;;;1.90;0.95;;;10.20;99.90;;;;;;4909520;29;20084;-74
2023/01/06 08:28:39;;;;;;;2.90;0.90;;;10.20;99.90;;;;;;4909679;29;20100;-72
2023/01/06 08:31:09;;;;;;;2.10;0.93;;;10.20;99.90;;;;;;4911211;29;20040;-72
2023/01/06 08:33:35;;;;;;;2.45;0.75;;;10.20;99.90;;;;;;4909071;29;20036;-73
2023/01/06 08:36:03;;;;;;;1.45;0.60;;;10.20;99.90;;;;;;4909733;29;20060;-72
2023/01/06 08:38:31;;;;;;;1.88;0.82;;;10.10;99.90;;;;;;4908674;29;20029;-73
2023/01/06 08:40:58;;;;;;;2.80;0.70;;;10.00;99.90;;;;;;4908908;29;20311;-71
2023/01/06 08:43:25;;;;;;;1.70;0.80;;;10.10;99.90;;;;;;4909066;29;20044;-71
2023/01/06 08:45:51;;;;;;;1.52;0.52;;;10.10;99.90;;;;;;4909468;29;20357;-71
2023/01/06 08:48:17;;;;;;;1.25;0.40;;;10.10;99.90;;;;;;4908786;29;20032;-71
2023/01/06 08:50:44;;;;;;;2.35;0.90;;;10.10;99.90;;;;;;4909295;29;20337;-70
2023/01/06 08:53:11;;;;;;;1.70;0.63;;;10.10;99.90;;;;;;4910268;29;20350;-73
2023/01/06 08:55:41;;;;;;;1.60;0.50;;;10.10;99.90;;;;;;4910095;29;20041;-72
2023/01/06 08:58:08;;;;;;;2.25;0.40;;;10.20;99.90;;;;;;4909321;29;20048;-72
2023/01/06 09:00:35;;;;;;;1.10;0.47;;;10.10;99.90;;;;;;4908170;29;20041;-71
2023/01/06 09:03:01;;;;;;;1.42;0.50;;;10.20;99.90;;;;;;4924783;29;20052;-71
2023/01/06 09:05:27;;;;;;;1.15;0.47;;;10.20;99.90;;;;;;4927360;29;20043;-72
2023/01/06 09:07:53;;;;;;;2.70;0.60;;;10.20;99.90;;;;;;4927680;29;20268;-74
2023/01/06 09:10:19;;;;;;;0.98;0.40;;;10.10;99.90;;;;;;4916494;29;20378;-73
2023/01/06 09:12:45;;;;;;;1.38;0.38;;;10.10;99.90;;;;;;4908557;29;20028;-72
2023/01/06 09:15:11;;;;;;;1.30;0.50;;;10.10;99.90;;;;;;4908858;29;20047;-72
2023/01/06 09:17:37;;;;;;;2.40;0.47;;;10.20;99.90;;;;;;4907141;29;20104;-72
2023/01/06 09:20:03;;;;;;;0.98;0.50;;;10.30;99.90;;;;;;4889881;29;20082;-74
2023/01/06 09:22:29;;;;;;;2.70;1.00;;;10.30;99.90;;;;;;4899750;29;20095;-72
2023/01/06 09:24:55;;;;;;;2.97;1.20;;;10.30;99.90;;;;;;4908707;29;20024;-71
2023/01/06 09:27:21;;;;;;;2.25;0.90;;;10.40;99.90;;;;;;4908019;29;20032;-70
2023/01/06 09:29:47;;;;;;;1.80;0.60;;;10.50;99.90;;;;;;4907341;29;20219;-71
2023/01/06 09:32:13;;;;;;;1.42;0.52;;;10.70;99.90;;;;;;4908196;29;20028;-70
2023/01/06 09:34:38;;;;;;;1.80;0.63;;;10.90;99.90;;;;;;4896689;29;20196;-71
2023/01/06 09:37:04;;;;;;;1.63;0.47;;;11.10;99.90;;;;;;4889733;29;20028;-71
2023/01/06 09:39:30;;;;;;;1.25;0.40;;;11.30;99.90;;;;;;4888917;29;20033;-70
2023/01/06 09:42:31;;;;;;;0.80;0.25;;;11.40;99.90;;;;;;4894721;29;20072;-69
2023/01/06 09:45:05;;;;;;;1.60;0.43;;;11.50;99.90;;;;;;4905358;29;20065;-70
2023/01/06 09:47:39;;;;;;;1.23;0.38;;;11.70;99.90;;;;;;4907850;29;20045;-72
2023/01/06 09:50:17;;;;;;;1.90;0.28;;;11.80;99.90;;;;;;4909827;29;20032;-71
2023/01/06 09:52:51;;;;;;;1.15;0.30;;;11.90;99.90;;;;;;4915735;29;20056;-72
2023/01/06 09:55:22;;;;;;;1.10;0.40;;;12.10;99.90;;;;;;4906998;29;20032;-72
2023/01/06 09:57:57;;;;;;;1.33;0.38;;;12.30;99.90;;;;;;4906663;29;20168;-72
2023/01/06 10:00:41;;;;;;;1.42;0.40;;;12.50;99.90;;;;;;4924557;29;20028;-71
2023/01/06 10:03:14;;;;;;;1.58;0.40;;;12.80;99.90;;;;;;4924936;29;20068;-72
2023/01/06 10:06:07;;;;;;;0.88;0.20;;;13.00;99.90;;;;;;4926454;29;20087;-71
2023/01/06 10:08:55;;;;;;;2.78;0.60;;;13.00;99.90;;;;;;4910280;29;20032;-73
2023/01/06 10:11:44;;;;;;;0.88;0.25;;;13.00;99.90;;;;;;4913779;29;20069;-71
2023/01/06 10:14:22;;;;;;;1.05;0.28;;;13.10;99.90;;;;;;4898219;29;20314;-72
2023/01/06 10:17:16;;;;;;;0.90;0.30;;;13.10;99.90;;;;;;4907946;29;20084;-72
2023/01/06 10:20:04;;;;;;;2.03;0.60;;;13.10;99.90;;;;;;4907446;29;20036;-71
2023/01/06 10:22:44;;;;;;;;;;;13.00;99.90;;;;;;4907839;29;20040;-72
2023/01/06 10:25:43;;;;;;;2.60;0.80;;;12.80;99.90;;;;;;4906762;29;19912;-73
2023/01/06 10:28:39;;;;;;;1.02;0.30;;;12.80;99.90;;;;;;4907022;29;20048;-72
2023/01/06 10:31:15;;;;;;;0.82;0.30;;;12.80;99.90;;;;;;4906792;29;20040;-71
2023/01/06 10:33:51;;;;;;;1.17;0.30;;;12.70;99.90;;;;;;4906502;29;20218;-72
2023/01/06 10:36:25;;;;;;;2.30;1.10;;;12.70;99.90;;;;;;4907078;29;20063;-71
2023/01/06 10:38:53;;;;;;;1.95;0.70;;;12.90;99.90;;;;;;4906754;29;20083;-73
2023/01/06 10:41:48;;;;;;;1.73;0.60;;;12.90;99.90;;;;;;4906970;29;20246;-74
2023/01/06 10:44:16;;;;;;;1.88;0.40;;;13.00;99.90;;;;;;4907006;29;20103;-71
2023/01/06 10:46:44;;;;;;;1.13;0.38;;;13.30;99.90;;;;;;4907261;29;20024;-73
2023/01/06 10:49:18;;;;;;;1.42;0.30;;;13.40;99.90;;;;;;4907124;29;20042;-73
2023/01/06 10:51:50;;;;;;;1.75;0.32;;;13.50;99.90;;;;;;4906785;29;20036;-72
2023/01/06 10:54:32;;;;;;;0.82;0.25;;;13.30;99.90;;;;;;4906896;29;20314;-76
2023/01/06 10:57:08;;;;;;;0.55;0.17;;;13.20;99.90;;;;;;4907119;29;20221;-72
2023/01/06 11:00:26;;;;;;;1.02;0.32;;;13.10;99.90;;;;;;4906523;29;20100;-72
2023/01/06 11:03:01;;;;;;;0.82;0.20;;;13.00;99.90;;;;;;4895829;29;20323;-70
2023/01/06 11:05:29;;;;;;;0.70;0.20;;;12.80;99.90;;;;;;4906395;29;20048;-72
2023/01/06 11:08:02;;;;;;;0.68;0.10;;;12.90;99.90;;;;;;4906593;29;20350;-71
2023/01/06 11:10:38;;;;;;;1.30;0.10;;;12.80;99.90;;;;;;4906330;29;20033;-72
2023/01/06 11:13:06;;;;;;;1.52;0.20;;;12.70;99.90;;;;;;4906851;29;20073;-73
2023/01/06 11:15:40;;;;;;;1.55;0.20;;;12.80;99.90;;;;;;4906262;29;20036;-71
2023/01/06 11:18:32;;;;;;;0.77;0.17;;;12.90;99.90;;;;;;4906750;29;20321;-73
2023/01/06 11:21:04;;;;;;;0.60;0.20;;;13.00;99.90;;;;;;4906824;29;20040;-72
2023/01/06 11:23:30;;;;;;;0.88;0.22;;;13.10;99.90;;;;;;4906066;29;20044;-73
2023/01/06 11:26:03;;;;;;;1.13;0.30;;;13.20;99.90;;;;;;4910585;29;20039;-74
2023/01/06 11:28:29;;;;;;;1.40;0.13;;;13.20;99.90;;;;;;4910058;29;20035;-71
2023/01/06 11:31:08;;;;;;;1.48;0.65;;;13.30;99.90;;;;;;4910302;29;20059;-75
2023/01/06 11:33:37;;;;;;;0.90;0.20;;;13.30;99.90;;;;;;4909632;29;20079;-74
2023/01/06 11:36:11;;;;;;;1.00;0.20;;;13.30;99.90;;;;;;4910595;29;20255;-73
2023/01/06 11:39:01;;;;;;;0.80;0.30;;;13.20;99.90;;;;;;4909918;29;20259;-71
2023/01/06 11:41:36;;;;;;;1.05;0.10;;;13.10;99.90;;;;;;4883964;29;20044;-70
2023/01/06 11:44:09;;;;;;;0.20;0.10;;;13.20;99.90;;;;;;4910539;29;20141;-72
2023/01/06 11:46:37;;;;;;;0.57;0.17;;;13.10;99.90;;;;;;4909709;29;20052;-72
2023/01/06 11:49:11;;;;;;;0.43;0.17;;;13.10;99.90;;;;;;4910088;29;20033;-72
2023/01/06 11:51:40;;;;;;;0.38;0.10;;;13.20;99.90;;;;;;4909685;29;20028;-73
2023/01/06 11:54:27;;;;;;;1.13;0.20;;;13.20;99.90;;;;;;4909987;29;20037;-73
2023/01/06 11:57:03;;;;;;;1.27;0.20;;;13.40;99.90;;;;;;4910208;29;20107;-71
2023/01/06 11:59:52;;;;;;;1.13;0.20;;;13.30;99.90;;;;;;4909710;29;20032;-74
2023/01/06 12:02:27;;;;;;;0.60;0.22;;;13.20;99.90;;;;;;4910038;29;20226;-73
2023/01/06 12:04:55;;;;;;;1.23;0.20;;;13.30;99.90;;;;;;4910122;29;20044;-73
2023/01/06 12:07:39;;;;;;;0.43;0.15;;;13.40;99.90;;;;;;4909588;29;20225;-73
2023/01/06 12:10:13;;;;;;;0.65;0.13;;;13.40;99.90;;;;;;4909750;29;20036;-72
2023/01/06 12:12:39;;;;;;;0.68;0.15;;;13.30;99.90;;;;;;4909216;29;20041;-73
2023/01/06 12:15:11;;;;;;;1.10;0.30;;;13.30;99.90;;;;;;4909937;29;20047;-72
2023/01/06 12:17:46;;;;;;;0.45;0.20;;;13.20;99.90;;;;;;4909383;29;20037;-72
2023/01/06 12:20:22;;;;;;;0.82;0.20;;;13.20;99.90;;;;;;4909865;29;20021;-72
2023/01/06 12:22:55;;;;;;;1.42;0.17;;;13.20;99.90;;;;;;4909909;29;20116;-74
2023/01/06 12:25:36;;;;;;;1.13;0.30;;;13.30;99.90;;;;;;4909338;29;20314;-73
2023/01/06 12:28:13;;;;;;;0.65;0.30;;;13.20;99.90;;;;;;4908554;29;20036;-73
2023/01/06 12:30:53;;;;;;;0.93;0.32;;;13.20;99.90;;;;;;4909298;29;20033;-72
2023/01/06 12:33:49;;;;;;;0.85;0.30;;;13.30;99.90;;;;;;4909412;29;20092;-72
2023/01/06 12:36:28;;;;;;;0.82;0.30;;;13.20;99.90;;;;;;4908877;29;20039;-73
2023/01/06 12:39:09;;;;;;;1.27;0.30;;;13.20;99.90;;;;;;4909462;29;20036;-73
2023/01/06 12:41:39;;;;;;;0.65;0.30;;;13.20;99.90;;;;;;4909109;29;20040;-72
2023/01/06 12:44:32;;;;;;;0.85;0.30;;;13.20;99.90;;;;;;4908954;29;20315;-73
2023/01/06 12:47:10;;;;;;;0.82;0.30;;;13.20;99.90;;;;;;4909147;29;20311;-73
2023/01/06 12:49:55;;;;;;;0.95;0.40;;;13.10;99.90;;;;;;4907402;29;20036;-73
2023/01/06 12:52:51;;;;;;;1.17;0.55;;;12.90;99.90;;;;;;4908049;29;20036;-74
2023/01/06 12:55:35;;;;;;;1.08;0.35;;;12.90;99.90;;;;;;4895005;29;20045;-73
2023/01/06 12:58:23;;;;;;;1.73;0.50;;;12.80;99.90;;;;;;4908291;29;20032;-73
2023/01/06 13:01:04;;;;;;;1.10;0.43;;;12.80;99.90;;;;;;4909209;29;20025;-73
2023/01/06 13:03:36;;;;;;;1.65;0.47;;;12.80;99.90;;;;;;4908388;29;20116;-74
2023/01/06 13:06:20;;;;;;;1.52;0.57;;;12.80;99.90;;;;;;4906629;29;20370;-74
2023/01/06 13:09:15;;;;;;;2.95;1.15;;;12.80;99.90;;;;;;4907933;29;20056;-72
2023/01/06 13:12:25;;;;;;;3.10;1.10;;;12.80;99.90;;;;;;4891043;29;20029;-73
2023/01/06 13:15:24;;;;;;;1.38;0.30;;;12.80;99.90;;;;;;4890463;29;20059;-75
2023/01/06 13:18:19;;;;;;;1.77;0.50;;;12.80;99.90;;;;;;4889469;29;20311;-78
2023/01/06 13:20:48;;;;;;;1.65;0.60;;;12.90;99.90;;;;;;4893041;29;20068;-73
2023/01/06 13:23:14;;;;;;;;;;;13.00;99.90;;;;;;4895776;29;20025;-72
2023/01/06 13:25:57;;;;;;;2.33;0.75;;;13.10;99.90;;;;;;4892904;29;19908;-75
2023/01/06 13:28:50;;;;;;;2.45;0.70;;;13.10;99.90;;;;;;4906487;29;20024;-74
2023/01/06 13:31:40;;;;;;;1.92;0.57;;;13.20;99.90;;;;;;4911234;29;20294;-74
2023/01/06 13:34:38;;;;;;;1.30;0.40;;;13.20;99.90;;;;;;4889789;29;20045;-74
2023/01/06 13:37:15;;;;;;;;;;;13.20;99.90;;;;;;4902430;29;20057;-76
2023/01/06 13:39:53;;;;;;;1.88;0.70;;;13.30;99.90;;;;;;4888833;29;19931;-74
2023/01/06 13:42:29;;;;;;;1.48;0.40;;;13.30;99.90;;;;;;4889823;29;20134;-73
2023/01/06 13:44:55;;;;;;;1.58;0.40;;;13.20;99.90;;;;;;4899883;29;20027;-73
2023/01/06 13:47:22;;;;;;;2.40;0.40;;;13.20;99.90;;;;;;4926089;29;20028;-74
2023/01/06 13:49:49;;;;;;;1.77;0.50;;;13.20;99.90;;;;;;4926522;29;20035;-75
2023/01/06 13:52:22;;;;;;;1.40;0.50;;;13.10;99.90;;;;;;4927098;29;20059;-75
2023/01/06 13:54:47;;;;;;;3.08;0.45;;;13.00;99.90;;;;;;4924532;29;20222;-75
2023/01/06 13:57:22;;;;;;;2.30;0.50;;;12.90;99.90;;;;;;4904524;29;20033;-77
2023/01/06 13:59:49;;;;;;;1.45;0.50;;;12.90;99.90;;;;;;4905976;29;20389;-75
2023/01/06 14:02:33;;;;;;;1.35;0.55;;;12.90;99.90;;;;;;4914555;29;20368;-74
2023/01/06 14:05:00;;;;;;;1.98;0.47;;;12.80;99.90;;;;;;4921404;29;20180;-74
2023/01/06 14:07:40;;;;;;;1.88;0.70;;;12.80;99.90;;;;;;4904832;29;20063;-78
2023/01/06 14:10:30;;;;;;;2.20;0.77;;;12.80;99.90;;;;;;4916398;29;20024;-72
2023/01/06 14:12:57;;;;;;;1.65;0.50;;;12.80;99.90;;;;;;4926500;29;20031;-74
2023/01/06 14:15:32;;;;;;;1.67;0.57;;;12.80;99.90;;;;;;4926762;29;20044;-73
2023/01/06 14:18:00;;;;;;;1.13;0.40;;;12.80;99.90;;;;;;4909543;29;20036;-72
2023/01/06 14:20:33;;;;;;;2.20;0.70;;;12.80;99.90;;;;;;4926503;29;20099;-71
2023/01/06 14:23:04;;;;;;;2.80;0.90;;;12.70;99.90;;;;;;4926475;29;20064;-72
2023/01/06 14:25:39;;;;;;;4.90;1.40;;;12.70;99.90;;;;;;4926586;29;20123;-74
2023/01/06 14:28:31;;;;;;;3.47;1.50;;;12.70;99.90;;;;;;4926541;29;20172;-72
2023/01/06 14:31:31;;;;;;;2.45;1.17;;;12.60;99.90;;;;;;4918477;29;20044;-73
2023/01/06 14:33:58;;;;;;;3.25;1.20;;;12.50;99.90;;;;;;4925800;29;20032;-73
2023/01/06 14:36:31;;;;;;;3.05;1.13;;;12.50;99.90;;;;;;4926061;29;20020;-72
2023/01/06 14:39:17;;;;;;;2.65;1.13;;;12.50;99.90;;;;;;4926085;29;20020;-73
2023/01/06 14:41:50;;;;;;;2.38;1.00;;;12.40;99.90;;;;;;4923545;29;20066;-72
2023/01/06 14:44:49;;;;;;;2.08;0.88;;;12.40;99.90;;;;;;4909265;29;20032;-72
2023/01/06 14:47:28;;;;;;;2.65;1.20;;;12.40;99.90;;;;;;4925458;29;20318;-73
2023/01/06 14:49:57;;;;;;;3.95;1.17;;;12.40;99.90;;;;;;4920361;29;20028;-73
2023/01/06 14:52:32;;;;;;;3.40;0.90;;;12.30;99.90;;;;;;4926101;29;20246;-73
2023/01/06 14:54:59;;;;;;;2.50;0.90;;;12.30;99.90;;;;;;4919695;29;20230;-71
2023/01/06 14:57:37;;;;;;;2.20;0.80;;;12.20;99.90;;;;;;4909363;29;20310;-71
2023/01/06 15:00:25;;;;;;;2.85;1.10;;;12.10;99.90;;;;;;4913559;29;20052;-74
2023/01/06 15:03:16;;;;;;;2.70;0.98;;;12.00;99.90;;;;;;4904773;29;20069;-69
2023/01/06 15:05:42;;;;;;;4.13;1.52;;;11.90;99.90;;;;;;4906036;29;20028;-70
2023/01/06 15:08:08;;;;;;;2.45;1.10;;;11.80;99.90;;;;;;4906783;29;20024;-70
2023/01/06 15:10:39;;;;;;;3.20;1.40;;;11.80;99.90;;;;;;4918370;29;20369;-72
2023/01/06 15:13:20;;;;;;;3.08;1.10;;;11.80;99.90;;;;;;4912196;29;20067;-69
2023/01/06 15:15:51;;;;;;;2.35;0.82;;;11.70;99.90;;;;;;4907795;29;20321;-71
2023/01/06 15:18:17;;;;;;;3.83;1.67;;;11.60;99.90;;;;;;4925570;29;20028;-72
2023/01/06 15:20:44;;;;;;;3.25;1.45;;;11.60;99.90;;;;;;4907250;29;20222;-71
2023/01/06 15:23:18;;;;;;;3.85;1.70;;;11.60;99.90;;;;;;4906410;29;20042;-71
2023/01/06 15:25:48;;;;;;;3.95;1.48;;;11.60;99.90;;;;;;4905969;29;20032;-69
2023/01/06 15:28:29;;;;;;;2.30;1.05;;;11.60;99.90;;;;;;4906892;29;20056;-70
2023/01/06 15:30:55;;;;;;;3.33;1.33;;;11.50;99.90;;;;;;4922031;29;20326;-70
2023/01/06 15:33:23;;;;;;;2.67;1.42;;;11.50;99.90;;;;;;4924290;29;20229;-70
2023/01/06 15:35:50;;;;;;;2.70;1.10;;;11.50;99.90;;;;;;4925105;29;20050;-72
2023/01/06 15:38:27;;;;;;;2.03;1.00;;;11.50;99.90;;;;;;4925517;29;20103;-69
2023/01/06 15:40:53;;;;;;;2.47;1.13;;;11.50;99.90;;;;;;4924897;29;20344;-70
2023/01/06 15:43:25;;;;;;;3.05;1.40;;;11.50;99.90;;;;;;4921617;29;20028;-68
2023/01/06 15:46:03;;;;;;;2.60;1.17;;;11.50;99.90;;;;;;4905948;29;20071;-70
2023/01/06 15:48:32;;;;;;;2.83;1.02;;;11.50;99.90;;;;;;4923247;29;20040;-71
2023/01/06 15:50:58;;;;;;;2.83;1.48;;;11.40;99.90;;;;;;4906179;29;20032;-70
2023/01/06 15:53:31;;;;;;;3.40;1.60;;;11.40;99.90;;;;;;4906336;29;20032;-69
2023/01/06 15:55:58;;;;;;;2.67;1.33;;;11.40;99.90;;;;;;4905649;29;20092;-72
2023/01/06 15:58:37;;;;;;;2.28;1.00;;;11.40;99.90;;;;;;4906228;29;20311;-73
2023/01/06 16:01:12;;;;;;;3.80;1.13;;;11.40;99.90;;;;;;4906600;29;20032;-71
2023/01/06 16:03:39;;;;;;;2.78;1.27;;;11.40;99.90;;;;;;4905748;29;20064;-71
2023/01/06 16:06:06;;;;;;;3.67;1.10;;;11.30;99.90;;;;;;4906305;29;20021;-70
2023/01/06 16:08:32;;;;;;;3.03;1.17;;;11.30;99.90;;;;;;4906409;29;20036;-71
2023/01/06 16:14:48;;;;;;;1.98;1.00;;;11.30;99.90;;;;;;4887561;29;20048;-70
2023/01/06 16:17:33;;;;;;;2.55;1.08;;;11.30;99.90;;;;;;4879283;29;20044;-71
2023/01/06 16:20:06;;;;;;;2.80;1.17;;;11.30;99.90;;;;;;4896109;29;20104;-72
2023/01/06 16:22:49;;;;;;;3.47;2.20;;;11.20;99.90;;;;;;4928444;29;20112;-70
2023/01/06 16:25:22;;;;;;;4.68;1.73;;;11.20;99.90;;;;;;4915683;29;20033;-73
2023/01/06 16:27:50;;;;;;;2.63;1.55;;;11.20;99.90;;;;;;4905581;29;20035;-71
2023/01/06 16:30:21;;;;;;;3.83;1.40;;;11.10;99.90;;;;;;4909140;29;20020;-72
2023/01/06 16:32:48;;;;;;;3.20;1.40;;;11.10;99.90;;;;;;4908976;29;20044;-73
2023/01/06 16:35:20;;;;;;;3.45;1.40;;;11.10;99.90;;;;;;4909585;29;20056;-70
2023/01/06 16:37:46;;;;;;;3.30;1.38;;;11.10;99.90;;;;;;4906991;29;20111;-70
2023/01/06 16:40:13;;;;;;;3.35;1.38;;;11.10;99.90;;;;;;4903838;29;20043;-72
2023/01/06 16:42:43;;;;;;;3.03;1.13;;;11.10;99.90;;;;;;4908407;29;20031;-71
2023/01/06 16:45:24;;;;;;;3.03;1.35;;;11.10;99.90;;;;;;4908028;29;20214;-71
2023/01/06 16:47:50;;;;;;;2.42;1.30;;;11.10;99.90;;;;;;4908427;29;20029;-71
2023/01/06 16:50:21;;;;;;;2.60;1.48;;;11.00;99.90;;;;;;4925006;29;20191;-72
2023/01/06 16:52:58;;;;;;;3.78;1.67;;;11.00;99.90;;;;;;4927765;29;20306;-74
2023/01/06 16:55:23;;;;;;;3.85;1.90;;;11.00;99.90;;;;;;4928346;29;20028;-71
2023/01/06 16:57:50;;;;;;;4.07;2.03;;;11.00;99.90;;;;;;4927470;29;20048;-72
2023/01/06 17:00:21;;;;;;;3.78;2.10;;;10.90;99.90;;;;;;4914106;29;20036;-71
2023/01/06 17:02:49;;;;;;;3.78;2.03;;;10.90;99.90;;;;;;4906825;29;20045;-73
2023/01/06 17:05:22;;;;;;;4.63;2.20;;;10.90;99.90;;;;;;4908954;29;20101;-72
2023/01/06 17:07:49;;;;;;;3.80;2.03;;;10.90;99.90;;;;;;4908316;29;20323;-72
2023/01/06 17:10:19;;;;;;;6.45;2.60;;;10.90;99.90;;;;;;4903827;29;20100;-73
2023/01/06 17:13:33;;;;;;;5.90;2.45;;;10.90;99.90;;;;;;4889479;29;20033;-71
2023/01/06 17:16:25;;;;;;;4.28;2.97;;;11.00;99.90;;;;;;4889296;29;20052;-73
2023/01/06 17:19:00;;;;;;;7.20;3.65;;;10.90;99.90;;;;;;4889833;29;20078;-71
2023/01/06 17:21:32;;;;;;;8.15;3.42;;;10.90;99.90;;;;;;4913863;29;20032;-72
2023/01/06 17:24:10;;;;;;;5.47;2.47;;;11.00;99.90;;;;;;4927048;29;20079;-71
2023/01/06 17:26:36;;;;;;;4.53;2.47;;;11.00;99.90;;;;;;4927232;29;20155;-71
2023/01/06 17:29:11;;;;;;;5.75;3.10;;;10.90;99.90;;;;;;4906305;29;20033;-71
2023/01/06 17:31:44;;;;;;;5.07;2.75;;;11.00;99.90;;;;;;4905580;29;20084;-71
2023/01/06 17:34:14;;;;;;;5.10;2.90;;;10.90;99.90;;;;;;4908268;29;20035;-73
2023/01/06 17:36:43;;;;;;;4.78;2.78;;;10.90;99.90;;;;;;4908837;29;20036;-71
2023/01/06 17:39:17;;;;;;;5.55;3.42;;;10.90;99.90;;;;;;4908043;29;20024;-71
2023/01/06 17:41:43;;;;;;;5.47;3.13;;;10.90;99.90;;;;;;4908018;29;20044;-76
2023/01/06 17:44:16;;;;;;;5.20;3.17;;;10.80;99.90;;;;;;4908051;29;20139;-77
2023/01/06 17:46:44;;;;;;;5.97;3.25;;;10.80;99.90;;;;;;4907892;29;20033;-74
2023/01/06 17:49:31;;;;;;;6.00;2.95;;;10.80;99.90;;;;;;4915412;29;20066;-72
2023/01/06 17:51:58;;;;;;;7.53;3.40;;;10.80;99.90;;;;;;4926950;29;20056;-72
2023/01/06 17:57:20;;;;;;;6.13;3.45;;;10.70;99.90;;;;;;4908254;29;20307;-74
2023/01/06 17:59:48;;;;;;;5.57;3.20;;;10.50;99.90;;;;;;4907137;29;20028;-76
2023/01/06 18:02:52;;;;;;;;;;;10.40;99.90;;;;;;4908258;29;20247;-74
2023/01/06 18:05:21;;;;;;;5.60;2.63;;;10.40;99.90;;;;;;4868396;29;19936;-75
2023/01/06 18:07:46;;;;;;;6.00;2.97;;;10.30;99.90;;;;;;4852197;29;20040;-76
2023/01/06 18:10:17;;;;;;;5.15;2.92;;;10.30;99.90;;;;;;4868370;29;20193;-73
2023/01/06 18:12:43;;;;;;;6.30;3.30;;;10.20;99.90;;;;;;4868354;29;20043;-73
2023/01/06 18:15:34;;;;;;;6.18;3.47;;;10.30;99.90;;;;;;4868391;29;20049;-74
2023/01/06 18:18:01;;;;;;;7.10;3.13;;;10.20;99.90;;;;;;4867970;29;20037;-74
2023/01/06 18:20:28;;;;;;;5.70;3.17;;;10.30;99.90;;;;;;4868493;29;20041;-75
2023/01/06 18:22:56;;;;;;;6.35;3.67;;;10.20;99.90;;;;;;4867815;29;20033;-75
2023/01/06 18:25:23;;;;;;;5.57;3.38;;;10.20;99.90;;;;;;4852772;29;20395;-75
2023/01/06 18:27:50;;;;;;;8.68;4.35;;;10.20;99.90;;;;;;4867733;29;20037;-74
2023/01/06 18:30:22;;;;;;;7.20;4.15;;;10.20;99.90;;;;;;4864292;29;20042;-74
2023/01/06 18:32:49;;;;;;;8.73;4.93;;;10.20;99.90;;;;;;4866950;29;20033;-73
2023/01/06 18:35:26;;;;;;;7.60;4.68;;;10.10;99.90;;;;;;4871622;29;20224;-73
2023/01/06 18:37:52;;;;;;;7.10;4.43;;;10.10;99.90;;;;;;4888149;29;20029;-75
2023/01/06 18:40:22;;;;;;;11.52;5.25;;;10.10;99.90;;;;;;4887705;29;20037;-73
2023/01/06 18:42:49;;;;;;;7.47;4.13;;;10.20;99.90;;;;;;4920336;29;20152;-75
2023/01/06 18:45:23;;;;;;;8.93;5.13;;;10.20;99.90;;;;;;4907164;29;20032;-75
2023/01/06 18:48:00;;;;;;;6.97;4.65;;;10.20;99.90;;;;;;4906836;29;20048;-73
2023/01/06 18:50:37;;;;;;;7.63;4.80;;;10.20;99.90;;;;;;4923973;29;20170;-74
2023/01/06 18:53:12;;;;;;;9.07;4.88;;;10.20;99.90;;;;;;4925537;29;20032;-74
2023/01/06 18:55:49;;;;;;;8.93;5.22;;;10.20;99.90;;;;;;4925742;29;20307;-73
2023/01/06 18:58:24;;;;;;;9.68;5.07;;;10.20;99.90;;;;;;4925501;29;20028;-74
2023/01/06 19:00:49;;;;;;;7.47;4.32;;;10.20;99.90;;;;;;4925426;29;20031;-74
2023/01/06 19:03:36;;;;;;;9.32;4.80;;;10.20;99.90;;;;;;4919774;29;20269;-74
2023/01/06 19:06:31;;;;;;;9.80;5.40;;;10.20;99.90;;;;;;4906024;29;20024;-74
2023/01/06 19:09:00;;;;;;;7.90;5.00;;;10.20;99.90;;;;;;4906331;29;20167;-73
2023/01/06 19:11:27;;;;;;;6.88;4.10;;;10.10;99.90;;;;;;4887070;29;20021;-73
2023/01/06 19:13:58;;;;;;;8.77;4.97;;;10.10;99.90;;;;;;4887609;29;20195;-74
2023/01/06 19:16:26;;;;;;;7.82;4.82;;;10.10;99.90;;;;;;4888270;29;20307;-73
2023/01/06 19:18:52;;;;;;;7.45;4.78;;;10.10;99.90;;;;;;4889042;29;20037;-73
2023/01/06 19:21:17;;;;;;;7.32;4.40;;;10.20;99.90;;;;;;4889381;29;20025;-74
2023/01/06 19:23:43;;;;;;;6.80;4.40;;;10.20;99.90;;;;;;4888272;29;20041;-75
2023/01/06 19:26:29;;;;;;;8.15;5.00;;;10.20;99.90;;;;;;4887397;29;20067;-72